Current Weather

Jendouba

Jendouba, Tunisia (DTTN)

Report from: Tuesday, February 27, 2024 10:00 AM CET
Current time: Tuesday, February 27, 2024 11:03 AM CET

Nearby weather – Weather history – Daily summaries
Weather forecast

Temperature13.0°C (55.4°F)
Dew point10.0°C (50.0°F)
Winds 4 kts (2.1 m/s, 4.6 mph) Vrb
Winds variableWinds variable from South-Southeast (150°) to West-Southwest (250°)
Visibility6.2 mi. (10 km)
Clouds Scattered clouds 2,000 ft. (610 m)
Scattered clouds 3,000 ft. (914 m)
Altimeter29.71 in.Hg (1006 mB)
Relative humidity82 %
Density altitude183 ft. (56 m)
Flight conditions Visual Meteorological Conditions
Raw dataDTTN 270900Z 20004KT 150V250 9999 SCT020 SCT030 13/10 Q1006
An error has occurred. This application may no longer respond until reloaded. Reload 🗙